Time;durP1;ratioP1;P1;durP2;ratioP2;P2;SDS_P1;SDS_P2;PMS_P1;PMS_P2;Temp;Humidity;BMP_temperature;BMP_pressure;BME280_temperature;BME280_humidity;BME280_pressure;Samples;Min_cycle;Max_cycle;Signal;HPM_P1;HPM_P2
2021/10/15 00:01:35;;;;;;;14.05;9.18;;;;;;;9.49;90.40;100708.34;1631996;83;27322;-81
2021/10/15 00:04:02;;;;;;;14.15;10.28;;;;;;;9.49;90.66;100708.34;1694283;83;26375;-81
2021/10/15 00:06:29;;;;;;;14.25;10.20;;;;;;;9.48;90.57;100704.83;1699546;83;26459;-81
2021/10/15 00:08:56;;;;;;;15.85;10.10;;;;;;;9.48;90.87;100704.00;1666626;83;25836;-81
2021/10/15 00:11:23;;;;;;;13.48;10.98;;;;;;;9.48;91.09;100699.48;1678170;83;26322;-81
2021/10/15 00:13:50;;;;;;;13.85;9.95;;;;;;;9.47;91.03;100704.52;1678447;83;27502;-81
2021/10/15 00:16:17;;;;;;;13.65;9.90;;;;;;;9.48;91.26;100702.66;1689692;83;25874;-81
2021/10/15 00:18:44;;;;;;;14.23;10.95;;;;;;;9.49;91.72;100697.66;1726007;81;26569;-81
2021/10/15 00:21:11;;;;;;;16.62;11.08;;;;;;;9.48;91.51;100696.81;1678286;83;26565;-82
2021/10/15 00:23:38;;;;;;;15.60;11.12;;;;;;;9.51;91.54;100692.95;1706566;83;25687;-81
2021/10/15 00:26:05;;;;;;;16.50;10.95;;;;;;;9.53;91.66;100694.95;1706263;82;27474;-81
2021/10/15 00:28:32;;;;;;;14.85;11.08;;;;;;;9.52;92.32;100683.91;1725993;81;25862;-81
2021/10/15 00:30:59;;;;;;;15.83;10.28;;;;;;;9.52;91.96;100691.44;1641445;84;25978;-81
2021/10/15 00:33:26;;;;;;;20.27;12.73;;;;;;;9.55;92.20;100691.09;1689522;82;26468;-81
2021/10/15 00:35:55;;;;;;;15.85;11.63;;;;;;;9.55;92.08;100687.58;1692045;82;25844;-81
2021/10/15 00:38:22;;;;;;;16.80;11.75;;;;;;;9.55;92.42;100684.41;1637999;85;27812;-81
2021/10/15 00:40:49;;;;;;;17.87;12.40;;;;;;;9.54;93.70;100688.08;1674484;83;25396;-81
2021/10/15 00:43:16;;;;;;;16.65;11.55;;;;;;;9.54;92.87;100689.94;1726515;81;25913;-81
2021/10/15 00:45:43;;;;;;;16.60;10.82;;;;;;;9.54;93.01;100677.91;1726800;81;26578;-81
2021/10/15 00:48:10;;;;;;;17.98;12.43;;;;;;;9.54;93.68;100673.90;1678756;83;25855;-81
2021/10/15 00:50:37;;;;;;;17.50;11.73;;;;;;;9.54;93.35;100680.05;1677972;83;28267;-81
2021/10/15 00:53:05;;;;;;;17.07;12.10;;;;;;;9.54;93.37;100678.72;1725460;81;25343;-81
2021/10/15 00:55:32;;;;;;;20.50;12.98;;;;;;;9.55;93.46;100674.20;1677955;83;26038;-81
2021/10/15 00:57:59;;;;;;;20.48;13.88;;;;;;;9.54;93.66;100672.56;1726100;81;25739;-81
2021/10/15 01:00:26;;;;;;;19.70;13.35;;;;;;;9.56;93.55;100667.86;1643560;84;25770;-81
2021/10/15 01:02:53;;;;;;;22.52;14.40;;;;;;;9.56;93.52;100663.85;1678467;83;27564;-82
2021/10/15 01:05:20;;;;;;;22.35;14.53;;;;;;;9.56;93.67;100667.34;1706149;79;25878;-81
2021/10/15 01:07:48;;;;;;;23.52;14.87;;;;;;;9.58;93.58;100666.66;1726127;82;26566;-81
2021/10/15 01:10:17;;;;;;;24.85;14.80;;;;;;;9.59;93.46;100662.98;1660761;83;25882;-81
2021/10/15 01:12:45;;;;;;;20.23;13.45;;;;;;;9.62;93.55;100660.45;1682946;83;26011;-81
2021/10/15 01:15:12;;;;;;;22.73;14.63;;;;;;;9.64;93.53;100655.77;1709504;82;28267;-81
2021/10/15 01:17:39;;;;;;;25.17;16.35;;;;;;;9.67;93.53;100662.07;1678290;83;26392;-81
2021/10/15 01:20:07;;;;;;;25.92;15.95;;;;;;;9.67;93.53;100656.22;1695401;83;25850;-82
2021/10/15 01:22:34;;;;;;;26.75;15.48;;;;;;;9.66;94.08;100650.56;1701602;83;26468;-81
2021/10/15 01:25:01;;;;;;;25.30;15.95;;;;;;;9.66;94.00;100654.58;1706495;83;25829;-81
2021/10/15 01:27:28;;;;;;;24.65;16.05;;;;;;;9.68;93.99;100654.39;1682423;83;27258;-81
2021/10/15 01:29:55;;;;;;;26.82;16.20;;;;;;;9.69;94.09;100652.86;1699681;82;25820;-81
2021/10/15 01:32:22;;;;;;;24.27;17.05;;;;;;;9.71;94.27;100654.05;1655607;83;25887;-81
2021/10/15 01:34:51;;;;;;;26.75;16.37;;;;;;;9.71;94.16;100645.48;1725851;81;26008;-81
2021/10/15 01:37:18;;;;;;;31.15;17.27;;;;;;;9.73;94.25;100654.16;1678313;83;25832;-81
2021/10/15 01:39:45;;;;;;;35.28;20.15;;;;;;;9.74;94.07;100657.67;1700850;83;27565;-81
2021/10/15 01:44:57;;;;;;;30.17;18.52;;;;;;;9.77;94.30;100648.77;1704677;82;25837;-81
2021/10/15 01:47:24;;;;;;;33.63;20.00;;;;;;;9.77;94.47;100643.42;1685193;83;25842;-80
2021/10/15 01:49:51;;;;;;;32.45;20.17;;;;;;;9.80;94.57;100644.41;1694847;84;26466;-81
2021/10/15 01:52:20;;;;;;;30.62;18.95;;;;;;;9.81;94.44;100642.08;1681120;84;28163;-81
2021/10/15 01:54:47;;;;;;;34.53;20.97;;;;;;;9.82;94.58;100643.73;1701116;82;25822;-81
2021/10/15 01:57:16;;;;;;;35.40;22.45;;;;;;;9.82;94.60;100635.70;1664945;82;25929;-81
2021/10/15 01:59:43;;;;;;;35.13;21.52;;;;;;;9.82;94.64;100637.04;1654538;82;25849;-81
2021/10/15 02:02:10;;;;;;;32.25;19.48;;;;;;;9.85;94.63;100631.84;1701839;82;26556;-81
2021/10/15 02:04:37;;;;;;;37.35;23.00;;;;;;;9.86;94.81;100634.82;1706331;83;27507;-81
2021/10/15 02:07:04;;;;;;;36.65;22.02;;;;;;;9.89;94.86;100630.46;1678898;83;25746;-81
2021/10/15 02:09:31;;;;;;;40.33;24.55;;;;;;;9.90;94.79;100622.77;1721776;82;25859;-81
2021/10/15 02:12:02;;;;;;;37.30;21.93;;;;;;;9.92;95.01;100630.11;1652652;83;26020;-81
2021/10/15 02:14:27;;;;;;;39.35;23.80;;;;;;;9.92;94.90;100624.76;1701857;81;25952;-81
2021/10/15 02:16:54;;;;;;;42.95;24.63;;;;;;;9.95;94.75;100621.70;1673818;83;28206;-81
2021/10/15 02:19:21;;;;;;;41.45;24.15;;;;;;;9.95;94.87;100617.69;1674982;83;26151;-81
2021/10/15 02:21:48;;;;;;;43.17;24.12;;;;;;;9.96;95.10;100610.84;1655141;83;25827;-80
2021/10/15 02:24:15;;;;;;;40.25;24.37;;;;;;;9.99;95.30;100618.48;1706669;82;26507;-81
2021/10/15 02:26:42;;;;;;;39.83;24.45;;;;;;;9.99;95.32;100614.47;1678691;83;25872;-81
2021/10/15 02:29:09;;;;;;;36.40;22.13;;;;;;;10.00;95.19;100608.12;1651382;83;27548;-81
2021/10/15 02:31:36;;;;;;;45.92;26.40;;;;;;;10.03;95.65;100610.91;1673007;83;26067;-80
2021/10/15 02:34:03;;;;;;;47.45;27.48;;;;;;;10.03;95.20;100607.73;1675968;83;26318;-81
2021/10/15 02:36:30;;;;;;;43.78;25.17;;;;;;;10.04;95.15;100607.23;1720891;81;25748;-81
2021/10/15 02:38:57;;;;;;;42.93;25.97;;;;;;;10.06;95.40;100601.19;1698455;82;25920;-81
2021/10/15 02:41:24;;;;;;;43.05;25.50;;;;;;;10.07;95.18;100604.20;1655340;83;28200;-81
2021/10/15 02:43:53;;;;;;;44.40;27.98;;;;;;;10.08;95.90;100599.16;1701525;82;25966;-81
2021/10/15 02:46:20;;;;;;;44.48;26.20;;;;;;;10.09;95.31;100596.82;1726363;81;25835;-81
2021/10/15 02:48:47;;;;;;;43.65;26.02;;;;;;;10.11;95.45;100597.50;1654538;83;25822;-81
2021/10/15 02:51:14;;;;;;;42.48;26.17;;;;;;;10.13;95.62;100599.98;1677923;83;26659;-81
2021/10/15 02:53:42;;;;;;;44.10;25.55;;;;;;;10.13;95.35;100602.16;1698330;83;27638;-80
2021/10/15 02:56:09;;;;;;;39.67;24.50;;;;;;;10.15;95.33;100592.59;1700983;83;26194;-81
2021/10/15 02:58:35;;;;;;;43.00;25.57;;;;;;;10.16;95.49;100599.09;1667161;83;26612;-81
2021/10/15 03:01:03;;;;;;;39.42;24.20;;;;;;;10.17;95.44;100597.26;1641747;84;26285;-81
2021/10/15 03:03:30;;;;;;;41.45;25.72;;;;;;;10.18;95.67;100599.73;1726436;82;25982;-81
2021/10/15 03:05:57;;;;;;;35.60;22.17;;;;;;;10.17;95.83;100594.58;1677591;83;27588;-81
2021/10/15 03:08:24;;;;;;;35.73;23.42;;;;;;;10.18;95.80;100594.92;1652593;82;25896;-81
2021/10/15 03:10:51;;;;;;;37.58;23.02;;;;;;;10.17;95.75;100602.61;1701897;82;26573;-81
2021/10/15 03:13:18;;;;;;;40.05;24.90;;;;;;;10.18;95.87;100600.27;1677999;83;26501;-81
2021/10/15 03:15:45;;;;;;;34.45;21.80;;;;;;;10.18;95.55;100603.75;1678881;83;25899;-81
2021/10/15 03:18:12;;;;;;;37.58;22.50;;;;;;;10.19;96.26;100597.41;1633548;83;28449;-81
2021/10/15 03:20:39;;;;;;;34.13;22.87;;;;;;;10.20;95.86;100598.23;1660885;83;25409;-81
2021/10/15 03:23:08;;;;;;;34.95;22.77;;;;;;;10.20;95.69;100599.05;1701460;83;26488;-81
2021/10/15 03:25:35;;;;;;;35.25;22.85;;;;;;;10.20;95.80;100590.21;1726337;81;25978;-81
2021/10/15 03:28:03;;;;;;;36.28;23.47;;;;;;;10.24;95.64;100595.52;1655361;83;25891;-80
2021/10/15 03:30:30;;;;;;;35.20;23.40;;;;;;;10.24;95.78;100589.66;1701630;82;27456;-81
2021/10/15 03:32:57;;;;;;;33.95;22.73;;;;;;;10.25;95.60;100586.45;1704048;82;25833;-81
2021/10/15 03:35:24;;;;;;;33.30;21.65;;;;;;;10.25;95.68;100579.26;1687168;83;25822;-81
2021/10/15 03:37:51;;;;;;;34.40;22.73;;;;;;;10.26;95.72;100580.94;1727242;81;26010;-81
2021/10/15 03:40:18;;;;;;;32.13;21.80;;;;;;;10.27;95.72;100576.39;1649344;84;25962;-81
2021/10/15 03:42:45;;;;;;;30.08;20.45;;;;;;;10.29;95.95;100574.35;1701818;82;27556;-81
2021/10/15 03:45:12;;;;;;;30.57;21.42;;;;;;;10.30;95.58;100578.70;1700397;82;25860;-81
2021/10/15 03:47:41;;;;;;;32.65;21.60;;;;;;;10.30;95.59;100578.70;1705768;83;25884;-81
2021/10/15 03:50:09;;;;;;;31.52;21.20;;;;;;;10.32;95.54;100583.37;1653820;83;25832;-81
2021/10/15 03:52:37;;;;;;;33.75;22.85;;;;;;;10.32;95.56;100581.53;1676916;83;25870;-81
2021/10/15 03:55:10;;;;;;;33.42;22.45;;;;;;;10.33;95.61;100583.70;1699791;82;27631;-81
2021/10/15 03:57:37;;;;;;;34.53;22.05;;;;;;;10.34;95.60;100590.20;1698839;82;25802;-81
2021/10/15 04:00:07;;;;;;;32.85;21.65;;;;;;;10.33;95.50;100589.87;1704937;83;25864;-80
2021/10/15 04:02:42;;;;;;;35.88;21.10;;;;;;;10.33;95.47;100589.87;1660462;83;26612;-81
2021/10/15 04:05:10;;;;;;;29.52;19.85;;;;;;;10.34;95.78;100589.37;1705915;82;25601;-81
2021/10/15 04:07:38;;;;;;;31.68;20.95;;;;;;;10.36;95.52;100594.86;1705535;83;28208;-81
2021/10/15 04:10:08;;;;;;;30.92;19.50;;;;;;;10.35;95.58;100593.72;1678218;83;25873;-81
2021/10/15 04:12:35;;;;;;;28.47;20.02;;;;;;;10.38;95.48;100586.64;1652997;83;25902;-81
2021/10/15 04:15:06;;;;;;;32.65;20.85;;;;;;;10.38;95.23;100588.81;1705930;83;25808;-81
2021/10/15 04:17:33;;;;;;;29.65;20.85;;;;;;;10.41;95.14;100587.62;1701634;82;32441;-81
2021/10/15 04:20:00;;;;;;;28.95;19.70;;;;;;;10.41;95.26;100584.94;1678776;83;27511;-81
2021/10/15 04:22:29;;;;;;;27.20;19.20;;;;;;;10.40;95.42;100582.77;1676813;83;25585;-81
2021/10/15 04:24:56;;;;;;;30.60;20.55;;;;;;;10.40;95.19;100578.74;1660484;83;25922;-81
2021/10/15 04:27:24;;;;;;;29.63;20.45;;;;;;;10.42;95.03;100579.39;1709430;83;26434;-81
2021/10/15 04:29:51;;;;;;;28.87;19.80;;;;;;;10.43;95.04;100574.38;1659912;83;25998;-81
2021/10/15 04:32:18;;;;;;;27.67;19.92;;;;;;;10.43;95.23;100577.05;1658307;83;27419;-81
2021/10/15 04:34:45;;;;;;;31.85;20.92;;;;;;;10.44;95.15;100570.66;1695179;83;25735;-81
2021/10/15 04:37:12;;;;;;;29.45;20.45;;;;;;;10.45;95.13;100564.80;1698157;83;25778;-81
2021/10/15 04:39:40;;;;;;;31.23;20.27;;;;;;;10.44;95.50;100565.30;1631665;83;25963;-81
2021/10/15 04:42:07;;;;;;;28.62;19.02;;;;;;;10.45;95.49;100575.02;1678180;83;25834;-81
2021/10/15 04:44:34;;;;;;;28.65;19.75;;;;;;;10.45;95.34;100569.66;1706327;82;27604;-81
2021/10/15 04:47:01;;;;;;;29.25;19.87;;;;;;;10.46;95.39;100563.77;1706193;83;25840;-81
2021/10/15 04:49:28;;;;;;;31.48;20.70;;;;;;;10.46;95.28;100560.59;1688789;83;26597;-81
2021/10/15 04:51:55;;;;;;;34.35;21.20;;;;;;;10.46;95.23;100565.94;1653181;83;26488;-80
2021/10/15 04:54:22;;;;;;;35.98;22.45;;;;;;;10.47;95.32;100560.92;1699080;82;25977;-81
2021/10/15 04:56:49;;;;;;;31.93;22.85;;;;;;;10.47;95.26;100564.95;1705583;82;27550;-81
2021/10/15 04:59:16;;;;;;;31.50;20.25;;;;;;;10.47;95.33;100563.61;1644425;84;25948;-80
2021/10/15 05:01:43;;;;;;;32.03;21.23;;;;;;;10.47;95.30;100563.61;1657945;84;26553;-82
2021/10/15 05:04:11;;;;;;;31.30;20.62;;;;;;;10.49;95.17;100563.41;1700468;83;25930;-81
2021/10/15 05:06:38;;;;;;;34.92;22.48;;;;;;;10.50;95.17;100561.06;1694026;82;26609;-81
2021/10/15 05:11:37;;;;;;;32.33;22.20;;;;;;;10.52;95.26;100561.70;1701783;83;25896;-81
2021/10/15 05:14:05;;;;;;;33.63;21.87;;;;;;;10.52;95.17;100553.67;1706927;83;25852;-81
2021/10/15 05:16:33;;;;;;;30.80;20.57;;;;;;;10.54;95.04;100551.10;1705951;83;26013;-81
2021/10/15 05:19:00;;;;;;;31.33;22.25;;;;;;;10.56;95.05;100551.74;1666144;84;25859;-81
2021/10/15 05:21:27;;;;;;;32.03;21.93;;;;;;;10.58;95.00;100548.90;1678498;83;28141;-80
2021/10/15 05:23:54;;;;;;;30.92;20.95;;;;;;;10.58;95.02;100555.09;1722798;82;25602;-82
2021/10/15 05:26:21;;;;;;;34.75;21.35;;;;;;;10.58;95.14;100553.76;1677894;83;25347;-81
2021/10/15 05:28:48;;;;;;;30.52;21.70;;;;;;;10.59;95.08;100555.40;1676999;84;25994;-81
2021/10/15 05:31:15;;;;;;;34.45;22.02;;;;;;;10.59;95.16;100552.72;1647567;84;26540;-81
2021/10/15 05:33:42;;;;;;;36.70;22.60;;;;;;;10.60;95.09;100554.90;1726069;82;27513;-81
2021/10/15 05:36:09;;;;;;;35.45;22.85;;;;;;;10.61;95.04;100557.88;1669735;84;25947;-81
2021/10/15 05:38:36;;;;;;;33.67;21.68;;;;;;;10.63;94.97;100566.05;1659203;84;25814;-81
2021/10/15 05:41:03;;;;;;;37.85;24.05;;;;;;;10.65;95.02;100564.02;1695098;82;26621;-81
2021/10/15 05:43:30;;;;;;;32.15;21.07;;;;;;;10.65;94.85;100553.30;1727523;81;25758;-81
2021/10/15 05:45:57;;;;;;;36.98;23.30;;;;;;;10.66;94.86;100556.31;1659539;85;28260;-81
2021/10/15 05:48:25;;;;;;;32.15;21.00;;;;;;;10.67;94.77;100554.48;1649863;83;25846;-81
2021/10/15 05:50:52;;;;;;;33.65;21.87;;;;;;;10.67;94.79;100547.25;1632970;83;26024;-81
2021/10/15 05:53:20;;;;;;;32.80;22.13;;;;;;;10.69;94.86;100553.78;1726968;81;26544;-81
2021/10/15 05:58:53;;;;;;;30.35;19.62;;;;;;;10.71;94.88;100556.56;1696143;83;28219;-81
2021/10/15 06:01:24;;;;;;;30.00;20.40;;;;;;;10.72;94.87;100554.72;1668583;83;25884;-81
2021/10/15 06:14:39;;;;;;;32.15;22.20;;;;;;;10.76;94.71;100559.52;1705074;83;25819;-81
2021/10/15 06:17:08;;;;;;;31.23;21.90;;;;;;;10.76;94.58;100548.80;1706514;83;26124;-81
2021/10/15 06:19:56;;;;;;;32.83;20.80;;;;;;;10.78;94.55;100546.76;1655625;83;44531;-81
2021/10/15 06:22:04;;;;;;;32.73;22.42;;;;;;;10.80;94.50;100551.42;1697270;83;25842;-81
2021/10/15 06:24:31;;;;;;;32.85;20.75;;;;;;;10.84;94.36;100550.02;1663861;83;27359;-82
2021/10/15 06:26:59;;;;;;;32.67;22.55;;;;;;;10.88;94.29;100550.48;1694904;83;26538;-81
2021/10/15 06:29:26;;;;;;;30.45;21.25;;;;;;;10.92;94.28;100552.27;1699838;83;25321;-81
2021/10/15 06:31:53;;;;;;;28.00;19.95;;;;;;;10.96;94.23;100548.18;1653572;83;26438;-81
2021/10/15 06:34:20;;;;;;;31.37;20.82;;;;;;;10.99;94.01;100553.17;1701562;83;25779;-81
2021/10/15 06:36:47;;;;;;;29.95;20.30;;;;;;;11.00;93.89;100548.95;1725951;81;28301;-81
2021/10/15 06:39:14;;;;;;;30.00;20.08;;;;;;;11.02;93.73;100554.95;1677544;83;26355;-81
2021/10/15 06:41:41;;;;;;;28.35;19.87;;;;;;;11.06;93.71;100551.38;1678423;83;26124;-81
2021/10/15 06:44:08;;;;;;;30.55;20.70;;;;;;;11.08;93.71;100549.33;1674642;83;25901;-81
2021/10/15 06:46:35;;;;;;;26.90;19.37;;;;;;;11.10;93.56;100549.46;1706135;79;25301;-81
2021/10/15 06:49:02;;;;;;;28.65;20.48;;;;;;;11.12;93.53;100558.67;1675944;83;27467;-81
2021/10/15 06:51:29;;;;;;;28.15;20.37;;;;;;;11.13;93.48;100557.64;1685731;83;26340;-80
2021/10/15 06:53:56;;;;;;;29.32;21.40;;;;;;;11.13;93.33;100559.81;1706512;82;26005;-82
2021/10/15 06:56:23;;;;;;;30.68;21.33;;;;;;;11.15;93.36;100559.11;1686247;84;26505;-82
2021/10/15 06:58:50;;;;;;;29.15;19.90;;;;;;;11.19;93.33;100557.70;1726527;82;26626;-82
2021/10/15 07:01:17;;;;;;;28.32;18.98;;;;;;;11.21;93.24;100554.31;1665022;84;28069;-81
2021/10/15 07:03:44;;;;;;;28.38;19.25;;;;;;;11.25;93.24;100548.05;1701251;83;26077;-82
2021/10/15 07:06:11;;;;;;;29.60;20.90;;;;;;;11.29;93.11;100560.08;1705793;83;25882;-82
2021/10/15 07:08:38;;;;;;;30.62;21.33;;;;;;;11.32;92.89;100548.95;1701646;82;26306;-82
2021/10/15 07:11:05;;;;;;;30.95;20.40;;;;;;;11.35;92.98;100551.26;1654719;83;25770;-81
2021/10/15 07:13:32;;;;;;;27.65;19.40;;;;;;;11.39;92.77;100556.55;1726574;81;27513;-82
2021/10/15 07:15:59;;;;;;;24.65;18.20;;;;;;;11.44;92.86;100556.81;1642331;84;25921;-81
2021/10/15 07:18:26;;;;;;;24.43;18.23;;;;;;;11.44;92.31;100556.28;1706342;82;25927;-81
2021/10/15 07:20:53;;;;;;;27.45;19.25;;;;;;;11.45;92.37;100538.34;1664187;83;26672;-81
2021/10/15 07:23:20;;;;;;;27.67;19.67;;;;;;;11.46;92.14;100542.16;1665697;83;25781;-81
2021/10/15 07:25:47;;;;;;;27.05;19.77;;;;;;;11.47;91.96;100542.49;1726754;80;28202;-82
2021/10/15 07:28:15;;;;;;;22.87;16.93;;;;;;;11.49;91.94;100550.34;1706328;83;25993;-82
2021/10/15 07:30:42;;;;;;;23.77;18.00;;;;;;;11.49;91.88;100544.47;1627750;85;25864;-82
2021/10/15 07:33:09;;;;;;;25.57;18.75;;;;;;;11.52;91.77;100555.33;1677930;83;25554;-82
2021/10/15 07:35:37;;;;;;;20.30;16.52;;;;;;;11.55;91.73;100558.44;1727018;81;25809;-82
2021/10/15 07:38:04;;;;;;;28.70;18.77;;;;;;;11.57;91.45;100554.21;1706174;83;27471;-82
2021/10/15 07:40:31;;;;;;;21.25;16.93;;;;;;;11.56;91.26;100558.77;1654685;83;26489;-77
2021/10/15 07:42:58;;;;;;;23.73;17.40;;;;;;;11.57;91.18;100568.47;1649827;84;25757;-78
2021/10/15 07:45:28;;;;;;;23.42;16.60;;;;;;;11.57;91.11;100566.28;1666218;83;25897;-78
2021/10/15 07:47:56;;;;;;;21.27;16.50;;;;;;;11.58;90.99;100561.25;1701720;83;25832;-78
2021/10/15 07:50:23;;;;;;;27.13;16.62;;;;;;;11.60;91.10;100565.91;1658001;83;27550;-78
2021/10/15 07:52:50;;;;;;;24.45;16.42;;;;;;;11.62;90.91;100562.52;1672447;83;26459;-78
2021/10/15 07:55:17;;;;;;;24.85;17.15;;;;;;;11.64;90.98;100554.60;1725658;81;25907;-78
2021/10/15 07:57:44;;;;;;;22.70;16.97;;;;;;;11.67;90.86;100557.95;1700065;83;26430;-77
2021/10/15 08:00:13;;;;;;;21.45;15.98;;;;;;;11.67;90.52;100560.13;1701618;82;25866;-78
2021/10/15 08:02:40;;;;;;;20.90;15.48;;;;;;;11.69;90.49;100560.76;1677361;83;27498;-77
2021/10/15 08:05:12;;;;;;;24.00;16.15;;;;;;;11.67;90.11;100548.05;1725429;81;25849;-78
2021/10/15 08:07:37;;;;;;;22.30;15.48;;;;;;;11.68;90.32;100554.22;1663075;82;25742;-78
2021/10/15 08:10:05;;;;;;;21.85;16.67;;;;;;;11.68;90.39;100548.36;1635256;83;25795;-78
2021/10/15 08:12:32;;;;;;;20.17;14.20;;;;;;;11.72;90.16;100556.33;1694260;82;25841;-78
2021/10/15 08:14:59;;;;;;;21.30;15.60;;;;;;;11.74;90.11;100551.59;1661703;84;27524;-78
2021/10/15 08:17:26;;;;;;;21.35;14.18;;;;;;;11.76;90.04;100546.05;1716406;82;25856;-78
2021/10/15 08:19:53;;;;;;;23.95;16.67;;;;;;;11.80;89.98;100545.47;1639368;82;25887;-79
2021/10/15 08:22:21;;;;;;;21.48;15.30;;;;;;;11.85;90.08;100543.52;1670637;83;25763;-78
2021/10/15 08:24:47;;;;;;;23.67;15.93;;;;;;;11.92;90.11;100543.05;1693780;83;25792;-78
2021/10/15 08:27:15;;;;;;;22.85;15.43;;;;;;;11.99;90.28;100546.62;1693920;83;27470;-78
2021/10/15 08:29:42;;;;;;;19.87;14.95;;;;;;;12.06;90.20;100536.22;1656015;83;25845;-78
2021/10/15 08:32:09;;;;;;;21.70;15.50;;;;;;;12.12;89.63;100539.98;1676382;83;25895;-78
2021/10/15 08:34:36;;;;;;;17.92;14.70;;;;;;;12.16;89.51;100536.72;1700768;82;27302;-78
2021/10/15 08:37:04;;;;;;;20.08;14.13;;;;;;;12.22;89.44;100539.94;1705445;82;25868;-78
2021/10/15 08:39:31;;;;;;;23.27;16.20;;;;;;;12.26;89.04;100530.45;1673667;83;27427;-78
2021/10/15 08:42:00;;;;;;;20.80;14.03;;;;;;;12.31;89.32;100533.38;1642466;85;25894;-77
2021/10/15 08:44:41;;;;;;;21.80;14.78;;;;;;;12.38;89.12;100533.42;1677309;83;25796;-79
2021/10/15 08:47:09;;;;;;;19.82;15.05;;;;;;;12.37;88.28;100538.46;1698065;83;25837;-80
2021/10/15 08:49:36;;;;;;;18.90;14.38;;;;;;;12.37;88.38;100536.61;1675848;82;26598;-79
2021/10/15 08:52:04;;;;;;;17.12;13.35;;;;;;;12.42;88.50;100538.70;1674279;83;27061;-79
2021/10/15 08:54:32;;;;;;;18.95;14.03;;;;;;;12.45;87.78;100538.28;1721535;82;25952;-78
2021/10/15 08:57:00;;;;;;;20.97;14.95;;;;;;;12.46;87.41;100536.44;1700742;83;26003;-78
2021/10/15 08:59:40;;;;;;;18.45;14.25;;;;;;;12.48;87.66;100529.83;1701481;83;25839;-79
2021/10/15 09:02:15;;;;;;;23.45;14.50;;;;;;;12.54;87.18;100528.19;1671929;84;25896;-79
2021/10/15 09:04:51;;;;;;;19.48;14.05;;;;;;;12.58;87.39;100532.13;1677305;83;27470;-79
2021/10/15 09:07:20;;;;;;;20.80;14.83;;;;;;;12.64;87.63;100519.26;1705666;83;26005;-79
2021/10/15 09:09:56;;;;;;;22.27;15.55;;;;;;;12.73;87.39;100518.02;1677588;83;25843;-79
2021/10/15 09:12:20;;;;;;;22.10;14.58;;;;;;;12.80;87.11;100514.84;1677837;83;25774;-78
2021/10/15 09:14:47;;;;;;;20.25;15.08;;;;;;;12.86;87.09;100512.68;1664030;84;26618;-79
2021/10/15 09:17:31;;;;;;;23.07;16.05;;;;;;;12.94;86.83;100507.94;1705844;82;28515;-79
2021/10/15 09:19:56;;;;;;;19.73;14.53;;;;;;;13.01;86.38;100505.27;1676414;83;25825;-79
2021/10/15 09:22:32;;;;;;;19.17;14.85;;;;;;;13.09;86.27;100507.28;1721950;82;26552;-78
2021/10/15 09:25:11;;;;;;;19.55;15.30;;;;;;;13.20;86.21;100501.80;1663394;84;25817;-78
2021/10/15 09:27:44;;;;;;;20.10;14.85;;;;;;;13.35;86.20;100503.77;1690127;84;25592;-79
2021/10/15 09:30:21;;;;;;;19.23;14.95;;;;;;;13.49;85.40;100495.20;1691186;82;28469;-79
2021/10/15 09:32:58;;;;;;;23.15;15.28;;;;;;;13.59;85.48;100497.77;1665588;84;25808;-79
2021/10/15 09:35:29;;;;;;;18.87;15.38;;;;;;;13.67;84.79;100501.58;1664338;82;25959;-78
2021/10/15 09:38:01;;;;;;;20.25;16.30;;;;;;;13.72;84.89;100502.30;1723364;82;25734;-79
2021/10/15 09:40:44;;;;;;;18.00;14.38;;;;;;;13.78;83.78;100508.20;1665412;85;25932;-79
2021/10/15 09:43:14;;;;;;;21.80;15.70;;;;;;;13.78;83.41;100500.95;1706680;82;28427;-79
2021/10/15 09:45:53;;;;;;;21.73;15.10;;;;;;;13.81;83.25;100504.55;1726712;81;25748;-79
2021/10/15 09:48:35;;;;;;;21.23;15.58;;;;;;;13.78;82.40;100500.12;1705903;83;25846;-79
2021/10/15 09:51:21;;;;;;;21.42;14.83;;;;;;;13.75;82.49;100494.63;1633965;83;26559;-79
2021/10/15 09:54:16;;;;;;;21.85;14.75;;;;;;;13.73;82.49;100489.97;1677493;83;25829;-80
2021/10/15 09:56:52;;;;;;;20.00;14.05;;;;;;;13.72;82.01;100496.41;1690024;83;28214;-80
2021/10/15 09:59:18;;;;;;;19.05;14.73;;;;;;;13.75;82.28;100499.21;1687953;84;25753;-79
2021/10/15 10:01:45;;;;;;;22.73;13.53;;;;;;;13.76;82.40;100492.26;1701237;83;25784;-78
2021/10/15 10:04:13;;;;;;;17.62;13.03;;;;;;;13.83;82.18;100490.91;1689976;82;27076;-78
2021/10/15 10:06:40;;;;;;;18.55;13.78;;;;;;;13.90;82.07;100486.31;1700677;81;25997;-79
2021/10/15 10:09:09;;;;;;;18.40;13.25;;;;;;;13.98;81.86;100484.76;1705926;82;27609;-79
2021/10/15 10:11:36;;;;;;;18.87;13.93;;;;;;;14.05;81.45;100480.16;1644487;84;26624;-79
2021/10/15 10:14:03;;;;;;;17.95;13.50;;;;;;;14.14;80.85;100480.75;1654327;83;26017;-79
2021/10/15 10:16:31;;;;;;;20.60;12.98;;;;;;;14.21;80.28;100481.56;1703824;82;25870;-79
2021/10/15 10:19:01;;;;;;;16.80;12.07;;;;;;;14.24;79.44;100473.88;1697931;83;26381;-79
2021/10/15 10:21:33;;;;;;;14.73;12.00;;;;;;;14.26;79.74;100481.77;1684797;82;27405;-79
2021/10/15 10:24:15;;;;;;;17.75;12.10;;;;;;;14.32;78.88;100475.55;1725512;81;25980;-78
2021/10/15 10:26:49;;;;;;;16.30;11.95;;;;;;;14.36;76.80;100476.77;1691038;83;25891;-79
2021/10/15 10:29:17;;;;;;;16.25;13.05;;;;;;;14.38;77.82;100476.03;1703508;82;26566;-79
2021/10/15 10:31:45;;;;;;;17.62;12.25;;;;;;;14.44;76.73;100475.17;1701841;81;25337;-79
2021/10/15 10:34:25;;;;;;;15.20;11.75;;;;;;;14.51;78.12;100467.37;1666253;82;27641;-78
2021/10/15 10:37:06;;;;;;;18.67;14.10;;;;;;;14.55;77.13;100459.16;1673844;83;26057;-79
2021/10/15 10:39:35;;;;;;;15.45;12.55;;;;;;;14.62;77.89;100468.56;1702218;82;25901;-79
2021/10/15 10:42:12;;;;;;;16.97;13.80;;;;;;;14.69;77.22;100455.88;1701714;82;25793;-79
2021/10/15 10:44:50;;;;;;;15.23;11.73;;;;;;;14.76;77.43;100455.80;1701275;83;26446;-79
2021/10/15 10:47:21;;;;;;;21.23;11.75;;;;;;;14.85;77.01;100453.16;1680007;83;27427;-79
2021/10/15 10:50:06;;;;;;;;;;;;;;;14.89;75.38;100459.25;1691110;83;26117;-80
2021/10/15 10:52:47;;;;;;;16.77;12.23;;;;;;;14.89;75.42;100457.07;1701185;83;25842;-79
2021/10/15 10:55:54;;;;;;;14.70;12.28;;;;;;;14.87;75.44;100447.86;1675457;83;26551;-79
2021/10/15 10:58:37;;;;;;;15.38;12.20;;;;;;;14.88;75.54;100448.70;1645497;83;25814;-79
2021/10/15 11:01:25;;;;;;;15.03;10.60;;;;;;;14.89;74.14;100445.77;1698767;82;27525;-79
2021/10/15 11:03:53;;;;;;;15.25;11.68;;;;;;;14.86;73.59;100442.18;1700408;83;26162;-78
2021/10/15 11:06:21;;;;;;;15.48;11.70;;;;;;;14.89;74.60;100444.94;1698061;82;25865;-79
2021/10/15 11:08:48;;;;;;;15.20;10.70;;;;;;;14.92;73.88;100439.95;1676154;83;26599;-79
2021/10/15 11:11:28;;;;;;;13.65;11.00;;;;;;;14.93;73.79;100436.70;1701934;83;25818;-78
2021/10/15 11:13:55;;;;;;;12.73;10.48;;;;;;;14.94;73.90;100427.07;1701048;83;27471;-79
2021/10/15 11:16:25;;;;;;;12.55;10.45;;;;;;;14.96;72.63;100426.33;1701186;81;25842;-79
2021/10/15 11:18:54;;;;;;;14.07;11.38;;;;;;;14.95;72.10;100427.36;1678006;83;26511;-79
2021/10/15 11:21:21;;;;;;;14.58;10.08;;;;;;;14.95;72.62;100421.16;1696604;83;25886;-79
2021/10/15 11:23:49;;;;;;;14.83;10.85;;;;;;;14.99;72.68;100419.13;1705822;83;25905;-80
2021/10/15 11:26:16;;;;;;;14.10;10.85;;;;;;;15.07;73.60;100414.00;1654637;83;27655;-80
2021/10/15 11:28:43;;;;;;;14.13;10.05;;;;;;;15.21;73.78;100408.27;1701714;82;26477;-79
2021/10/15 11:31:14;;;;;;;13.20;9.70;;;;;;;15.37;73.53;100392.87;1700345;82;26574;-79
2021/10/15 11:33:41;;;;;;;;;;;;;;;15.44;71.10;100402.25;1704625;83;26569;-78
2021/10/15 11:36:08;;;;;;;13.45;10.13;;;;;;;15.43;70.75;100392.52;1697224;82;25921;-79
2021/10/15 11:38:35;;;;;;;13.32;9.58;;;;;;;15.41;70.99;100390.02;1654347;83;27527;-79